createdAt,value
2017-05-07T00:01:03.745Z,1007.33
2017-05-07T00:02:12.703Z,1007.3
2017-05-07T00:03:21.660Z,1007.33
2017-05-07T00:04:30.708Z,1007.33
2017-05-07T00:05:39.917Z,1007.32
2017-05-07T00:06:48.882Z,1007.32
2017-05-07T00:07:58.175Z,1007.31
2017-05-07T00:09:07.141Z,1007.28
2017-05-07T00:10:16.099Z,1007.3
2017-05-07T00:11:25.312Z,1007.29
2017-05-07T00:12:34.268Z,1007.28
2017-05-07T00:13:43.224Z,1007.3
2017-05-07T00:14:52.183Z,1007.31
2017-05-07T00:16:01.142Z,1007.33
2017-05-07T00:17:10.349Z,1007.28
2017-05-07T00:18:19.306Z,1007.3
2017-05-07T00:19:28.264Z,1007.32
2017-05-07T00:20:37.221Z,1007.27
2017-05-07T00:21:46.186Z,1007.23
2017-05-07T00:22:55.424Z,1007.23
2017-05-07T00:24:04.383Z,1007.24
2017-05-07T00:25:13.668Z,1007.22
2017-05-07T00:26:22.630Z,1007.24
2017-05-07T00:27:31.597Z,1007.25
2017-05-07T00:28:40.806Z,1007.22
2017-05-07T00:29:49.854Z,1007.21
2017-05-07T00:30:58.824Z,1007.22
2017-05-07T00:32:07.787Z,1007.25
2017-05-07T00:33:16.746Z,1007.23
2017-05-07T00:34:25.951Z,1007.26
2017-05-07T00:35:34.910Z,1007.26
2017-05-07T00:36:43.865Z,1007.28
2017-05-07T00:37:52.827Z,1007.27
2017-05-07T00:39:01.783Z,1007.23
2017-05-07T00:40:10.992Z,1007.25
2017-05-07T00:41:19.950Z,1007.22
2017-05-07T00:42:28.993Z,1007.27
2017-05-07T00:43:37.950Z,1007.28
2017-05-07T00:44:46.918Z,1007.25
2017-05-07T00:45:56.453Z,1007.25
2017-05-07T00:47:05.412Z,1007.25
2017-05-07T00:48:14.370Z,1007.26
2017-05-07T00:49:23.332Z,1007.22
2017-05-07T00:50:32.389Z,1007.24
2017-05-07T00:51:41.633Z,1007.28
2017-05-07T00:52:50.586Z,1007.25
2017-05-07T00:53:59.903Z,1007.24
2017-05-07T00:55:08.872Z,1007.21
2017-05-07T00:56:17.830Z,1007.24
2017-05-07T00:57:27.035Z,1007.22
2017-05-07T00:58:36.084Z,1007.19
2017-05-07T00:59:45.042Z,1007.21
2017-05-07T01:00:53.998Z,1007.24
2017-05-07T01:02:02.959Z,1007.18
2017-05-07T01:03:12.170Z,1007.18
2017-05-07T01:04:21.134Z,1007.21
2017-05-07T01:05:30.095Z,1007.22
2017-05-07T01:06:39.055Z,1007.22
2017-05-07T01:07:48.015Z,1007.21
2017-05-07T01:08:57.234Z,1007.19
2017-05-07T01:10:06.192Z,1007.17
2017-05-07T01:11:15.148Z,1007.22
2017-05-07T01:12:24.102Z,1007.21
2017-05-07T01:13:33.058Z,1007.21
2017-05-07T01:14:42.265Z,1007.2
2017-05-07T01:15:51.308Z,1007.2
2017-05-07T01:17:00.353Z,1007.22
2017-05-07T01:18:09.312Z,1007.19
2017-05-07T01:19:18.278Z,1007.17
2017-05-07T01:20:27.491Z,1007.2
2017-05-07T01:21:36.454Z,1007.17
2017-05-07T01:22:45.415Z,1007.17
2017-05-07T01:23:54.406Z,1007.15
2017-05-07T01:25:03.369Z,1007.19
2017-05-07T01:26:12.578Z,1007.16
2017-05-07T01:27:21.541Z,1007.16
2017-05-07T01:28:30.501Z,1007.17
2017-05-07T01:29:39.463Z,1007.17
2017-05-07T01:30:48.414Z,1007.17
2017-05-07T01:31:57.675Z,1007.17
2017-05-07T01:33:06.636Z,1007.16
2017-05-07T01:34:15.594Z,1007.16
2017-05-07T01:35:24.556Z,1007.12
2017-05-07T01:36:33.517Z,1007.13
2017-05-07T01:37:42.730Z,1007.13
2017-05-07T01:38:51.692Z,1007.11
2017-05-07T01:40:00.752Z,1007.09
2017-05-07T01:41:09.712Z,1007.09
2017-05-07T01:42:18.678Z,1007.12
2017-05-07T01:43:27.887Z,1007.11
2017-05-07T01:44:36.843Z,1007.12
2017-05-07T01:45:46.067Z,1007.12
2017-05-07T01:46:57.046Z,1007.1
2017-05-07T01:48:06.556Z,1007.11
2017-05-07T01:49:16.629Z,1007.07
2017-05-07T01:50:26.276Z,1007.1
2017-05-07T01:51:35.344Z,1007.11
2017-05-07T01:52:45.451Z,1007.08
2017-05-07T01:53:55.642Z,1007.09
2017-05-07T01:55:04.875Z,1007.08
2017-05-07T01:56:14.603Z,1007.07
2017-05-07T01:57:23.569Z,1007.07
2017-05-07T01:58:33.253Z,1007.04
2017-05-07T01:59:42.543Z,1007.03
2017-05-07T02:00:52.371Z,1007.06
2017-05-07T02:02:02.163Z,1007.05
2017-05-07T02:03:11.300Z,1007.04
2017-05-07T02:04:22.994Z,1006.99
2017-05-07T02:05:33.025Z,1007
2017-05-07T02:06:43.452Z,1007.01
2017-05-07T02:07:53.665Z,1007.03
2017-05-07T02:09:02.629Z,1007
2017-05-07T02:10:12.757Z,1007.04
2017-05-07T02:11:24.417Z,1006.99
2017-05-07T02:12:35.890Z,1006.98
2017-05-07T02:13:46.200Z,1006.95
2017-05-07T02:14:56.416Z,1006.97
2017-05-07T02:16:05.453Z,1006.96
2017-05-07T02:17:16.177Z,1006.98
2017-05-07T02:18:26.450Z,1006.98
2017-05-07T02:19:36.514Z,1006.96
2017-05-07T02:20:46.692Z,1006.98
2017-05-07T02:21:55.737Z,1006.96
2017-05-07T02:23:05.725Z,1006.98
2017-05-07T02:24:16.279Z,1006.93
2017-05-07T02:25:27.974Z,1006.93
2017-05-07T02:26:37.157Z,1006.89
2017-05-07T02:27:47.240Z,1006.93
2017-05-07T02:28:56.273Z,1006.87
2017-05-07T02:30:06.739Z,1006.87
2017-05-07T02:31:16.923Z,1006.85
2017-05-07T02:32:27.221Z,1006.84
2017-05-07T02:33:36.244Z,1006.82
2017-05-07T02:34:46.090Z,1006.83
2017-05-07T02:35:58.317Z,1006.85
2017-05-07T02:37:07.272Z,1006.86
2017-05-07T02:38:17.868Z,1006.84
2017-05-07T02:39:28.120Z,1006.82
2017-05-07T02:40:38.693Z,1006.82
2017-05-07T02:41:50.578Z,1006.84
2017-05-07T02:42:59.538Z,1006.85
2017-05-07T02:44:09.813Z,1006.79
2017-05-07T02:45:19.173Z,1006.82
2017-05-07T02:46:29.003Z,1006.79
2017-05-07T02:47:39.301Z,1006.78
2017-05-07T02:48:49.344Z,1006.79
2017-05-07T02:49:59.037Z,1006.81
2017-05-07T02:51:10.905Z,1006.85
2017-05-07T02:52:22.523Z,1006.82
2017-05-07T02:53:31.795Z,1006.75
2017-05-07T02:54:41.885Z,1006.76
2017-05-07T02:55:50.838Z,1006.78
2017-05-07T02:57:00.521Z,1006.75
2017-05-07T02:58:09.485Z,1006.79
2017-05-07T02:59:18.695Z,1006.72
2017-05-07T03:00:27.694Z,1006.73
2017-05-07T03:01:37.918Z,1006.73
2017-05-07T03:02:47.398Z,1006.71
2017-05-07T03:03:56.482Z,1006.73
2017-05-07T03:05:05.743Z,1006.75
2017-05-07T03:06:15.072Z,1006.75
2017-05-07T03:07:24.028Z,1006.75
2017-05-07T03:08:34.647Z,1006.73
2017-05-07T03:09:44.682Z,1006.72
2017-05-07T03:10:53.939Z,1006.69
2017-05-07T03:12:03.927Z,1006.68
2017-05-07T03:13:14.232Z,1006.66
2017-05-07T03:14:23.423Z,1006.67
2017-05-07T03:15:33.473Z,1006.68
2017-05-07T03:16:43.084Z,1006.65
2017-05-07T03:17:52.514Z,1006.7
2017-05-07T03:19:01.988Z,1006.69
2017-05-07T03:20:11.476Z,1006.7
2017-05-07T03:21:20.866Z,1006.68
2017-05-07T03:22:31.268Z,1006.7
2017-05-07T03:23:42.382Z,1006.71
2017-05-07T03:24:52.288Z,1006.72
2017-05-07T03:26:02.805Z,1006.74
2017-05-07T03:27:11.761Z,1006.74
2017-05-07T03:28:22.557Z,1006.72
2017-05-07T03:29:32.170Z,1006.72
2017-05-07T03:30:42.183Z,1006.71
2017-05-07T03:31:52.419Z,1006.67
2017-05-07T03:33:01.710Z,1006.67
2017-05-07T03:34:12.403Z,1006.66
2017-05-07T03:35:22.950Z,1006.68
2017-05-07T03:36:33.866Z,1006.63
2017-05-07T03:37:43.218Z,1006.69
2017-05-07T03:38:53.119Z,1006.69
2017-05-07T03:40:02.969Z,1006.66
2017-05-07T03:41:13.128Z,1006.66
2017-05-07T03:42:22.781Z,1006.66
2017-05-07T03:43:31.741Z,1006.69
2017-05-07T03:44:41.823Z,1006.64
2017-05-07T03:45:51.391Z,1006.65
2017-05-07T03:47:00.436Z,1006.63
2017-05-07T03:48:09.395Z,1006.66
2017-05-07T03:49:18.446Z,1006.63
2017-05-07T03:50:27.402Z,1006.63
2017-05-07T03:51:36.601Z,1006.65
2017-05-07T03:52:45.559Z,1006.62
2017-05-07T03:53:54.521Z,1006.65
2017-05-07T03:55:03.477Z,1006.64
2017-05-07T03:56:12.433Z,1006.64
2017-05-07T03:57:21.733Z,1006.62
2017-05-07T03:58:30.784Z,1006.66
2017-05-07T03:59:39.762Z,1006.63
2017-05-07T04:00:48.751Z,1006.66
2017-05-07T04:01:58.049Z,1006.63
2017-05-07T04:03:07.255Z,1006.62
2017-05-07T04:04:16.220Z,1006.57
2017-05-07T04:05:25.186Z,1006.61
2017-05-07T04:06:34.142Z,1006.59
2017-05-07T04:07:43.101Z,1006.62
2017-05-07T04:08:52.356Z,1006.64
2017-05-07T04:10:01.319Z,1006.65
2017-05-07T04:11:10.274Z,1006.65
2017-05-07T04:12:19.232Z,1006.65
2017-05-07T04:13:28.195Z,1006.65
2017-05-07T04:14:37.490Z,1006.67
2017-05-07T04:15:46.445Z,1006.71
2017-05-07T04:16:55.403Z,1006.68
2017-05-07T04:18:04.494Z,1006.65
2017-05-07T04:19:13.542Z,1006.63
2017-05-07T04:20:22.749Z,1006.67
2017-05-07T04:21:31.720Z,1006.65
2017-05-07T04:22:40.853Z,1006.62
2017-05-07T04:23:50.132Z,1006.64
2017-05-07T04:24:59.092Z,1006.62
2017-05-07T04:26:08.320Z,1006.61
2017-05-07T04:27:17.277Z,1006.62
2017-05-07T04:28:26.231Z,1006.6
2017-05-07T04:29:35.192Z,1006.62
2017-05-07T04:30:44.142Z,1006.61
2017-05-07T04:31:53.438Z,1006.64
2017-05-07T04:33:02.397Z,1006.63
2017-05-07T04:34:11.355Z,1006.63
2017-05-07T04:35:20.398Z,1006.61
2017-05-07T04:36:29.360Z,1006.63
2017-05-07T04:37:38.569Z,1006.64
2017-05-07T04:38:47.536Z,1006.6
2017-05-07T04:39:56.497Z,1006.63
2017-05-07T04:41:05.536Z,1006.64
2017-05-07T04:42:14.493Z,1006.64
2017-05-07T04:44:47.523Z,1006.72
2017-05-07T04:45:56.481Z,1006.72
2017-05-07T04:47:05.438Z,1006.75
2017-05-07T04:48:14.491Z,1006.74
2017-05-07T04:49:23.697Z,1006.74
2017-05-07T04:50:32.685Z,1006.72
2017-05-07T04:51:41.646Z,1006.72
2017-05-07T04:52:50.609Z,1006.73
2017-05-07T04:53:59.575Z,1006.73
2017-05-07T04:55:08.785Z,1006.79
2017-05-07T04:56:17.738Z,1006.78
2017-05-07T04:57:26.783Z,1006.78
2017-05-07T04:58:35.740Z,1006.8
2017-05-07T04:59:44.698Z,1006.81
2017-05-07T05:00:54.010Z,1006.82
2017-05-07T05:02:03.370Z,1006.84
2017-05-07T05:03:12.758Z,1006.88
2017-05-07T05:04:21.711Z,1006.88
2017-05-07T05:05:30.675Z,1006.91
2017-05-07T05:06:40.208Z,1006.94
2017-05-07T05:07:49.165Z,1007
2017-05-07T05:08:58.454Z,1006.99
2017-05-07T05:10:07.410Z,1007.01
2017-05-07T05:11:16.675Z,1007.03
2017-05-07T05:12:28.282Z,1007.05
2017-05-07T05:13:37.336Z,1007.06
2017-05-07T05:14:47.393Z,1007.06
2017-05-07T05:15:57.049Z,1007.09
2017-05-07T05:17:06.006Z,1007.06
2017-05-07T05:18:15.244Z,1007.11
2017-05-07T05:19:25.235Z,1007.15
2017-05-07T05:20:35.682Z,1007.13
2017-05-07T05:21:45.600Z,1007.15
2017-05-07T05:22:55.250Z,1007.14
2017-05-07T05:24:05.288Z,1007.18
2017-05-07T05:25:16.405Z,1007.25
2017-05-07T05:26:25.973Z,1007.19
2017-05-07T05:27:36.531Z,1007.17
2017-05-07T05:28:46.929Z,1007.16
2017-05-07T05:29:57.719Z,1007.16
2017-05-07T05:31:07.578Z,1007.19
2017-05-07T05:32:16.533Z,1007.2
2017-05-07T05:33:26.294Z,1007.22
2017-05-07T05:34:35.254Z,1007.19
2017-05-07T05:35:46.649Z,1007.28
2017-05-07T05:36:56.064Z,1007.24
2017-05-07T05:38:06.200Z,1007.2
2017-05-07T05:39:16.260Z,1007.21
2017-05-07T05:40:25.301Z,1007.22
2017-05-07T05:41:35.605Z,1007.26
2017-05-07T05:42:45.825Z,1007.2
2017-05-07T05:43:56.341Z,1007.21
2017-05-07T05:45:05.384Z,1007.23
2017-05-07T05:46:15.091Z,1007.23
2017-05-07T05:47:24.303Z,1007.22
2017-05-07T05:48:33.996Z,1007.26
2017-05-07T05:49:43.342Z,1007.27
2017-05-07T05:50:52.699Z,1007.27
2017-05-07T05:52:01.982Z,1007.29
2017-05-07T05:53:12.935Z,1007.3
2017-05-07T05:54:21.889Z,1007.33
2017-05-07T05:55:31.764Z,1007.38
2017-05-07T05:56:40.919Z,1007.35
2017-05-07T05:57:50.832Z,1007.37
2017-05-07T05:59:00.045Z,1007.37
2017-05-07T06:00:11.073Z,1007.41
2017-05-07T06:01:20.896Z,1007.4
2017-05-07T06:02:31.816Z,1007.42
2017-05-07T06:03:41.523Z,1007.4
2017-05-07T06:04:50.799Z,1007.44
2017-05-07T06:06:00.473Z,1007.4
2017-05-07T06:07:10.145Z,1007.4
2017-05-07T06:08:19.533Z,1007.4
2017-05-07T06:09:29.628Z,1007.44
2017-05-07T06:10:39.593Z,1007.43
2017-05-07T06:11:48.552Z,1007.49
2017-05-07T06:12:58.445Z,1007.45
2017-05-07T06:14:07.402Z,1007.49
2017-05-07T06:15:17.507Z,1007.5
2017-05-07T06:16:26.712Z,1007.45
2017-05-07T06:17:36.488Z,1007.5
2017-05-07T06:18:46.755Z,1007.5
2017-05-07T06:19:55.719Z,1007.53
2017-05-07T06:21:05.821Z,1007.55
2017-05-07T06:22:16.693Z,1007.57
2017-05-07T06:23:26.814Z,1007.59
2017-05-07T06:24:35.885Z,1007.59
2017-05-07T06:25:45.612Z,1007.58
2017-05-07T06:26:54.839Z,1007.59
2017-05-07T06:28:04.374Z,1007.62
2017-05-07T06:29:13.344Z,1007.61
2017-05-07T06:30:23.183Z,1007.65
2017-05-07T06:31:32.138Z,1007.62
2017-05-07T06:32:41.547Z,1007.72
2017-05-07T06:33:51.179Z,1007.67
2017-05-07T06:35:01.436Z,1007.69
2017-05-07T06:36:11.397Z,1007.68
2017-05-07T06:37:21.561Z,1007.64
2017-05-07T06:38:30.568Z,1007.66
2017-05-07T06:39:42.087Z,1007.64
2017-05-07T06:40:51.040Z,1007.65
2017-05-07T06:42:00.518Z,1007.7
2017-05-07T06:43:10.049Z,1007.67
2017-05-07T06:44:20.609Z,1007.69
2017-05-07T06:45:33.054Z,1007.69
2017-05-07T06:46:43.221Z,1007.73
2017-05-07T06:47:52.179Z,1007.69
2017-05-07T06:49:02.086Z,1007.7
2017-05-07T06:50:11.041Z,1007.7
2017-05-07T06:51:21.187Z,1007.66
2017-05-07T06:52:31.454Z,1007.7
2017-05-07T06:53:41.978Z,1007.75
2017-05-07T06:54:51.390Z,1007.74
2017-05-07T06:56:00.946Z,1007.74
2017-05-07T06:57:10.161Z,1007.79
2017-05-07T06:58:19.120Z,1007.76
2017-05-07T06:59:28.077Z,1007.78
2017-05-07T07:00:37.033Z,1007.79
2017-05-07T07:01:46.311Z,1007.78
2017-05-07T07:02:55.517Z,1007.82
2017-05-07T07:04:04.476Z,1007.82
2017-05-07T07:05:13.431Z,1007.86
2017-05-07T07:06:22.388Z,1007.81
2017-05-07T07:07:31.429Z,1007.82
2017-05-07T07:08:40.635Z,1007.87
2017-05-07T07:09:49.595Z,1007.84
2017-05-07T07:10:58.558Z,1007.84
2017-05-07T07:12:08.103Z,1007.78
2017-05-07T07:13:17.067Z,1007.84
2017-05-07T07:14:26.715Z,1007.8
2017-05-07T07:15:35.673Z,1007.79
2017-05-07T07:16:44.632Z,1007.79
2017-05-07T07:17:53.586Z,1007.83
2017-05-07T07:19:02.547Z,1007.82
2017-05-07T07:20:11.854Z,1007.87
2017-05-07T07:21:20.813Z,1007.85
2017-05-07T07:22:29.771Z,1007.9
2017-05-07T07:23:39.022Z,1007.89
2017-05-07T07:24:49.153Z,1007.92
2017-05-07T07:25:58.682Z,1007.91
2017-05-07T07:27:08.697Z,1007.91
2017-05-07T07:28:17.678Z,1007.93
2017-05-07T07:29:26.636Z,1007.92
2017-05-07T07:30:35.599Z,1007.93
2017-05-07T07:31:44.806Z,1007.92
2017-05-07T07:32:53.763Z,1007.93
2017-05-07T07:34:02.722Z,1007.91
2017-05-07T07:35:11.804Z,1007.9
2017-05-07T07:36:20.766Z,1007.87
2017-05-07T07:37:29.978Z,1007.86
2017-05-07T07:38:38.937Z,1007.88
2017-05-07T07:39:47.906Z,1007.88
2017-05-07T07:40:56.869Z,1007.93
2017-05-07T07:42:06.163Z,1007.96
2017-05-07T07:43:15.375Z,1007.93
2017-05-07T07:44:24.413Z,1007.95
2017-05-07T07:45:33.549Z,1007.97
2017-05-07T07:46:42.501Z,1008.02
2017-05-07T07:47:51.547Z,1007.96
2017-05-07T07:49:00.796Z,1008.03
2017-05-07T07:50:09.757Z,1007.97
2017-05-07T07:51:18.709Z,1007.98
2017-05-07T07:52:27.829Z,1007.96
2017-05-07T07:53:37.335Z,1008.01
2017-05-07T07:54:46.612Z,1007.99
2017-05-07T07:55:55.680Z,1008
2017-05-07T07:57:04.671Z,1008.03
2017-05-07T07:58:13.630Z,1008.02
2017-05-07T07:59:22.727Z,1008.06
2017-05-07T08:00:32.114Z,1008.02
2017-05-07T08:01:41.084Z,1008.09
2017-05-07T08:02:50.171Z,1008.06
2017-05-07T08:03:59.131Z,1008.08
2017-05-07T08:05:08.177Z,1008.09
2017-05-07T08:06:17.534Z,1008.08
2017-05-07T08:07:26.523Z,1008.11
2017-05-07T08:08:35.827Z,1008.05
2017-05-07T08:09:44.976Z,1008.06
2017-05-07T08:10:54.059Z,1008.07
2017-05-07T08:12:03.442Z,1008.07
2017-05-07T08:13:12.585Z,1008.03
2017-05-07T08:14:21.544Z,1008.05
2017-05-07T08:15:31.132Z,1008.06
2017-05-07T08:16:40.120Z,1008.02
2017-05-07T08:17:49.327Z,1008.06
2017-05-07T08:18:58.289Z,1008.08
2017-05-07T08:20:07.272Z,1008.09
2017-05-07T08:21:16.256Z,1008.08
2017-05-07T08:22:25.233Z,1008.08
2017-05-07T08:23:34.470Z,1008.06
2017-05-07T08:24:43.447Z,1008.07
2017-05-07T08:25:52.518Z,1008.06
2017-05-07T08:27:01.498Z,1008.11
2017-05-07T08:28:10.481Z,1008.08
2017-05-07T08:29:19.765Z,1008.12
2017-05-07T08:30:28.844Z,1008.13
2017-05-07T08:31:37.832Z,1008.11
2017-05-07T08:32:46.812Z,1008.15
2017-05-07T08:33:55.799Z,1008.12
2017-05-07T08:35:05.036Z,1008.16
2017-05-07T08:36:14.022Z,1008.17
2017-05-07T08:37:23.067Z,1008.19
2017-05-07T08:38:32.056Z,1008.22
2017-05-07T08:39:41.045Z,1008.21
2017-05-07T08:40:50.336Z,1008.24
2017-05-07T08:41:59.315Z,1008.24
2017-05-07T08:43:08.297Z,1008.26
2017-05-07T08:44:17.383Z,1008.29
2017-05-07T08:45:26.398Z,1008.31
2017-05-07T08:46:35.688Z,1008.33
2017-05-07T08:47:44.710Z,1008.29
2017-05-07T08:48:53.695Z,1008.3
2017-05-07T08:50:02.676Z,1008.32
2017-05-07T08:51:11.749Z,1008.34
2017-05-07T08:52:20.987Z,1008.37
2017-05-07T08:53:29.970Z,1008.34
2017-05-07T08:54:38.957Z,1008.36
2017-05-07T08:55:48.167Z,1008.36
2017-05-07T08:56:57.496Z,1008.39
2017-05-07T08:58:06.889Z,1008.38
2017-05-07T08:59:15.985Z,1008.34
2017-05-07T09:00:24.971Z,1008.33
2017-05-07T09:01:34.038Z,1008.34
2017-05-07T09:02:43.211Z,1008.32
2017-05-07T09:03:52.524Z,1008.34
2017-05-07T09:05:01.595Z,1008.37
2017-05-07T09:06:10.643Z,1008.33
2017-05-07T09:07:19.605Z,1008.33
2017-05-07T09:08:28.563Z,1008.38
2017-05-07T09:09:37.775Z,1008.38
2017-05-07T09:10:46.914Z,1008.36
2017-05-07T09:11:56.610Z,1008.38
2017-05-07T09:13:06.073Z,1008.4
2017-05-07T09:14:15.035Z,1008.41
2017-05-07T09:15:24.293Z,1008.42
2017-05-07T09:16:33.850Z,1008.41
2017-05-07T09:17:43.223Z,1008.41
2017-05-07T09:18:52.450Z,1008.45
2017-05-07T09:20:01.597Z,1008.45
2017-05-07T09:21:10.930Z,1008.44
2017-05-07T09:22:20.234Z,1008.46
2017-05-07T09:23:29.207Z,1008.47
2017-05-07T09:24:38.246Z,1008.45
2017-05-07T09:25:47.234Z,1008.49
2017-05-07T09:26:56.803Z,1008.49
2017-05-07T09:28:05.839Z,1008.55
2017-05-07T09:29:14.940Z,1008.53
2017-05-07T09:30:24.018Z,1008.51
2017-05-07T09:31:33.100Z,1008.55
2017-05-07T09:32:42.445Z,1008.55
2017-05-07T09:33:51.507Z,1008.54
2017-05-07T09:35:00.567Z,1008.55
2017-05-07T09:36:09.726Z,1008.58
2017-05-07T09:37:18.856Z,1008.55
2017-05-07T09:38:28.120Z,1008.59
2017-05-07T09:39:37.084Z,1008.58
2017-05-07T09:40:46.037Z,1008.61
2017-05-07T09:41:54.992Z,1008.6
2017-05-07T09:43:03.952Z,1008.62
2017-05-07T09:44:13.306Z,1008.61
2017-05-07T09:45:22.267Z,1008.56
2017-05-07T09:46:31.317Z,1008.59
2017-05-07T09:47:40.312Z,1008.58
2017-05-07T09:48:49.268Z,1008.61
2017-05-07T09:49:58.530Z,1008.54
2017-05-07T09:51:07.512Z,1008.55
2017-05-07T09:52:16.471Z,1008.59
2017-05-07T09:53:25.433Z,1008.53
2017-05-07T09:54:34.389Z,1008.54
2017-05-07T09:55:43.654Z,1008.5
2017-05-07T09:56:52.619Z,1008.56
2017-05-07T09:58:01.583Z,1008.5
2017-05-07T09:59:10.542Z,1008.5
2017-05-07T10:00:19.511Z,1008.51
2017-05-07T10:01:28.772Z,1008.5
2017-05-07T10:02:37.738Z,1008.52
2017-05-07T10:03:46.729Z,1008.51
2017-05-07T10:04:56.019Z,1008.54
2017-05-07T10:06:04.981Z,1008.53
2017-05-07T10:07:14.249Z,1008.52
2017-05-07T10:08:23.297Z,1008.58
2017-05-07T10:09:32.344Z,1008.58
2017-05-07T10:10:41.390Z,1008.55
2017-05-07T10:11:50.360Z,1008.64
2017-05-07T10:12:59.704Z,1008.66
2017-05-07T10:14:08.666Z,1008.64
2017-05-07T10:15:17.622Z,1008.67
2017-05-07T10:16:26.910Z,1008.59
2017-05-07T10:17:35.875Z,1008.61
2017-05-07T10:18:45.140Z,1008.59
2017-05-07T10:19:54.104Z,1008.63
2017-05-07T10:21:03.065Z,1008.61
2017-05-07T10:22:12.038Z,1008.61
2017-05-07T10:23:21.087Z,1008.6
2017-05-07T10:24:30.348Z,1008.61
2017-05-07T10:25:39.312Z,1008.61
2017-05-07T10:26:48.267Z,1008.61
2017-05-07T10:27:57.486Z,1008.59
2017-05-07T10:29:07.256Z,1008.55
2017-05-07T10:30:16.516Z,1008.54
2017-05-07T10:31:25.479Z,1008.52
2017-05-07T10:32:34.530Z,1008.49
2017-05-07T10:33:43.493Z,1008.5
2017-05-07T10:34:52.457Z,1008.56
2017-05-07T10:36:01.759Z,1008.57
2017-05-07T10:37:10.721Z,1008.54
2017-05-07T10:38:19.679Z,1008.54
2017-05-07T10:39:28.642Z,1008.5
2017-05-07T10:40:37.597Z,1008.49
2017-05-07T10:41:46.810Z,1008.51
2017-05-07T10:42:55.865Z,1008.52
2017-05-07T10:44:04.914Z,1008.49
2017-05-07T10:45:14.202Z,1008.51
2017-05-07T10:46:23.481Z,1008.47
2017-05-07T10:47:32.773Z,1008.49
2017-05-07T10:48:41.733Z,1008.48
2017-05-07T10:49:50.699Z,1008.48
2017-05-07T10:50:59.752Z,1008.49
2017-05-07T10:52:08.714Z,1008.46
2017-05-07T10:53:17.984Z,1008.44
2017-05-07T10:54:29.037Z,1008.43
2017-05-07T10:55:38.006Z,1008.45
2017-05-07T10:56:46.991Z,1008.43
2017-05-07T10:57:55.952Z,1008.42
2017-05-07T10:59:05.213Z,1008.39
2017-05-07T11:00:14.259Z,1008.42
2017-05-07T11:01:23.215Z,1008.46
2017-05-07T11:02:32.173Z,1008.44
2017-05-07T11:03:41.138Z,1008.44
2017-05-07T11:04:50.720Z,1008.41
2017-05-07T11:05:59.678Z,1008.42
2017-05-07T11:07:08.964Z,1008.46
2017-05-07T11:08:17.925Z,1008.42
2017-05-07T11:09:26.893Z,1008.4
2017-05-07T11:10:36.152Z,1008.34
2017-05-07T11:11:45.115Z,1008.31
2017-05-07T11:12:54.075Z,1008.29
2017-05-07T11:14:03.039Z,1008.29
2017-05-07T11:15:12.322Z,1008.27
2017-05-07T11:16:21.588Z,1008.27
2017-05-07T11:17:30.552Z,1008.3
2017-05-07T11:18:39.516Z,1008.27
2017-05-07T11:19:48.478Z,1008.28
2017-05-07T11:20:57.438Z,1008.23
2017-05-07T11:22:06.699Z,1008.21
2017-05-07T11:23:15.674Z,1008.21
2017-05-07T11:24:24.638Z,1008.26
2017-05-07T11:25:33.604Z,1008.3
2017-05-07T11:26:42.567Z,1008.28
2017-05-07T11:27:51.843Z,1008.28
2017-05-07T11:29:00.811Z,1008.27
2017-05-07T11:30:09.860Z,1008.23
2017-05-07T11:31:19.140Z,1008.22
2017-05-07T11:32:28.106Z,1008.11
2017-05-07T11:33:37.368Z,1008.21
2017-05-07T11:34:46.328Z,1008.29
2017-05-07T11:35:55.337Z,1008.22
2017-05-07T11:37:04.777Z,1008.17
2017-05-07T11:38:13.772Z,1008.13
2017-05-07T11:39:23.175Z,1008.16
2017-05-07T11:40:32.693Z,1008.17
2017-05-07T11:41:41.984Z,1008.12
2017-05-07T11:42:51.029Z,1008.12
2017-05-07T11:44:00.200Z,1008.15
2017-05-07T11:45:09.485Z,1008.08
2017-05-07T11:46:18.529Z,1007.98
2017-05-07T11:47:27.596Z,1008.06
2017-05-07T11:48:36.631Z,1008.1
2017-05-07T11:49:45.654Z,1008.07
2017-05-07T11:50:54.953Z,1008.11
2017-05-07T11:52:04.104Z,1008.07
2017-05-07T11:53:13.246Z,1008.06
2017-05-07T11:54:22.207Z,1008.07
2017-05-07T11:55:31.187Z,1008.06
2017-05-07T11:56:40.598Z,1008.06
2017-05-07T11:57:49.712Z,1008.06
2017-05-07T11:58:58.813Z,1008.01
2017-05-07T12:00:07.797Z,1008.03
2017-05-07T12:01:16.865Z,1008.09
2017-05-07T12:02:26.326Z,1008.04
2017-05-07T12:03:35.534Z,1008.01
2017-05-07T12:04:44.674Z,1008
2017-05-07T12:05:53.712Z,1008
2017-05-07T12:07:02.675Z,1007.97
2017-05-07T12:08:11.895Z,1007.97
2017-05-07T12:09:20.883Z,1008
2017-05-07T12:10:29.899Z,1007.93
2017-05-07T12:11:38.882Z,1007.96
2017-05-07T12:12:47.871Z,1007.94
2017-05-07T12:13:57.113Z,1007.89
2017-05-07T12:15:06.098Z,1007.9
2017-05-07T12:16:15.090Z,1007.91
2017-05-07T12:17:24.071Z,1007.88
2017-05-07T12:18:33.061Z,1007.89
2017-05-07T12:19:42.345Z,1007.92
2017-05-07T12:20:51.332Z,1007.92
2017-05-07T12:22:00.323Z,1007.95
2017-05-07T12:23:09.305Z,1007.98
2017-05-07T12:24:18.300Z,1007.96
2017-05-07T12:25:27.579Z,1007.96
2017-05-07T12:26:36.571Z,1007.97
2017-05-07T12:27:45.558Z,1007.9
2017-05-07T12:28:54.542Z,1007.95
2017-05-07T12:30:03.527Z,1008
2017-05-07T12:31:12.813Z,1007.94
2017-05-07T12:32:21.800Z,1007.9
2017-05-07T12:33:30.794Z,1007.95
2017-05-07T12:34:40.080Z,1007.87
2017-05-07T12:35:49.062Z,1007.85
2017-05-07T12:36:58.347Z,1007.84
2017-05-07T12:38:07.345Z,1007.86
2017-05-07T12:39:16.661Z,1007.88
2017-05-07T12:40:25.649Z,1007.84
2017-05-07T12:41:34.640Z,1007.88
2017-05-07T12:42:44.012Z,1007.81
2017-05-07T12:43:52.986Z,1007.79
2017-05-07T12:45:01.946Z,1007.82
2017-05-07T12:46:10.998Z,1007.77
2017-05-07T12:47:20.492Z,1007.76
2017-05-07T12:48:30.080Z,1007.79
2017-05-07T12:49:39.097Z,1007.77
2017-05-07T12:50:48.082Z,1007.73
2017-05-07T12:51:57.234Z,1007.68
2017-05-07T12:53:06.311Z,1007.74
2017-05-07T12:54:15.592Z,1007.69
2017-05-07T12:55:24.605Z,1007.73
2017-05-07T12:56:33.588Z,1007.71
2017-05-07T12:57:42.586Z,1007.68
2017-05-07T12:58:51.576Z,1007.66
2017-05-07T13:00:00.867Z,1007.65
2017-05-07T13:01:10.176Z,1007.69
2017-05-07T13:02:19.138Z,1007.62
2017-05-07T13:03:28.199Z,1007.64
2017-05-07T13:04:37.340Z,1007.62
2017-05-07T13:05:48.177Z,1007.63
2017-05-07T13:07:02.907Z,1007.58
2017-05-07T13:08:12.142Z,1007.52
2017-05-07T13:09:21.187Z,1007.54
2017-05-07T13:10:30.144Z,1007.54
2017-05-07T13:11:39.409Z,1007.51
2017-05-07T13:12:48.369Z,1007.51
2017-05-07T13:13:57.451Z,1007.54
2017-05-07T13:15:06.502Z,1007.54
2017-05-07T13:16:15.477Z,1007.51
2017-05-07T13:17:24.745Z,1007.49
2017-05-07T13:18:33.710Z,1007.5
2017-05-07T13:19:42.685Z,1007.52
2017-05-07T13:20:51.650Z,1007.45
2017-05-07T13:22:00.609Z,1007.48
2017-05-07T13:23:09.869Z,1007.49
2017-05-07T13:24:18.829Z,1007.45
2017-05-07T13:25:27.797Z,1007.46
2017-05-07T13:26:37.097Z,1007.46
2017-05-07T13:27:46.060Z,1007.46
2017-05-07T13:28:55.644Z,1007.43
2017-05-07T13:30:04.611Z,1007.41
2017-05-07T13:31:13.580Z,1007.36
2017-05-07T13:32:22.543Z,1007.39
2017-05-07T13:33:31.510Z,1007.46
2017-05-07T13:34:40.823Z,1007.44
2017-05-07T13:35:49.786Z,1007.37
2017-05-07T13:36:58.752Z,1007.36
2017-05-07T13:38:08.042Z,1007.34
2017-05-07T13:39:17.005Z,1007.36
2017-05-07T13:40:26.268Z,1007.34
2017-05-07T13:41:35.225Z,1007.37
2017-05-07T13:42:44.192Z,1007.38
2017-05-07T13:43:53.161Z,1007.4
2017-05-07T13:45:02.212Z,1007.34
2017-05-07T13:46:11.479Z,1007.38
2017-05-07T13:47:20.445Z,1007.27
2017-05-07T13:48:29.409Z,1007.32
2017-05-07T13:49:38.394Z,1007.37
2017-05-07T13:50:47.361Z,1007.35
2017-05-07T13:51:56.624Z,1007.31
2017-05-07T13:53:05.592Z,1007.34
2017-05-07T13:54:14.551Z,1007.32
2017-05-07T13:55:23.512Z,1007.31
2017-05-07T13:56:32.475Z,1007.31
2017-05-07T13:57:41.736Z,1007.23
2017-05-07T13:58:50.791Z,1007.21
2017-05-07T13:59:59.755Z,1007.2
2017-05-07T14:01:08.718Z,1007.29
2017-05-07T14:02:17.684Z,1007.24
2017-05-07T14:03:27.054Z,1007.25